sensor_id;sensor_type;location;lat;lon;timestamp;pressure;altitude;pressure_sealevel;temperature;humidity
60345;BME280;46188;52.324;8.032;2023-11-21T00:02:14;99892.19;;;7.24;100.00
60345;BME280;46188;52.324;8.032;2023-11-21T00:04:39;99890.59;;;7.33;100.00
60345;BME280;46188;52.324;8.032;2023-11-21T00:07:04;99893.13;;;7.29;100.00
60345;BME280;46188;52.324;8.032;2023-11-21T00:09:30;99894.06;;;7.34;100.00
60345;BME280;46188;52.324;8.032;2023-11-21T00:11:56;99891.56;;;7.40;100.00
60345;BME280;46188;52.324;8.032;2023-11-21T00:14:21;99888.00;;;7.35;100.00
60345;BME280;46188;52.324;8.032;2023-11-21T00:16:46;99881.03;;;7.38;100.00
60345;BME280;46188;52.324;8.032;2023-11-21T00:19:12;99895.94;;;7.43;100.00
60345;BME280;46188;52.324;8.032;2023-11-21T00:21:37;99903.81;;;7.43;100.00
60345;BME280;46188;52.324;8.032;2023-11-21T00:24:02;99910.84;;;7.45;100.00
60345;BME280;46188;52.324;8.032;2023-11-21T00:26:28;99913.41;;;7.41;100.00
60345;BME280;46188;52.324;8.032;2023-11-21T00:28:53;99903.75;;;7.36;100.00
60345;BME280;46188;52.324;8.032;2023-11-21T00:31:18;99906.41;;;7.41;100.00
60345;BME280;46188;52.324;8.032;2023-11-21T00:33:43;99908.25;;;7.47;100.00
60345;BME280;46188;52.324;8.032;2023-11-21T00:36:09;99916.84;;;7.36;100.00
60345;BME280;46188;52.324;8.032;2023-11-21T00:38:35;99917.00;;;7.47;100.00
60345;BME280;46188;52.324;8.032;2023-11-21T00:41:00;99910.16;;;7.57;100.00
60345;BME280;46188;52.324;8.032;2023-11-21T00:43:25;99909.31;;;7.58;100.00
60345;BME280;46188;52.324;8.032;2023-11-21T00:45:50;99910.88;;;7.47;100.00
60345;BME280;46188;52.324;8.032;2023-11-21T00:48:16;99912.56;;;7.45;100.00
60345;BME280;46188;52.324;8.032;2023-11-21T00:50:41;99911.78;;;7.49;100.00
60345;BME280;46188;52.324;8.032;2023-11-21T00:53:06;99919.78;;;7.60;100.00
60345;BME280;46188;52.324;8.032;2023-11-21T00:55:32;99925.69;;;7.45;100.00
60345;BME280;46188;52.324;8.032;2023-11-21T00:57:57;99916.94;;;7.43;100.00
60345;BME280;46188;52.324;8.032;2023-11-21T01:00:23;99928.41;;;7.51;100.00
60345;BME280;46188;52.324;8.032;2023-11-21T01:02:48;99928.34;;;7.46;100.00
60345;BME280;46188;52.324;8.032;2023-11-21T01:05:13;99928.38;;;7.49;100.00
60345;BME280;46188;52.324;8.032;2023-11-21T01:07:39;99930.88;;;7.40;100.00
60345;BME280;46188;52.324;8.032;2023-11-21T01:10:04;99934.50;;;7.47;100.00
60345;BME280;46188;52.324;8.032;2023-11-21T01:12:32;99931.94;;;7.53;100.00
60345;BME280;46188;52.324;8.032;2023-11-21T01:14:57;99931.09;;;7.54;100.00
60345;BME280;46188;52.324;8.032;2023-11-21T01:17:25;99929.44;;;7.62;100.00
60345;BME280;46188;52.324;8.032;2023-11-21T01:19:50;99941.66;;;7.60;100.00
60345;BME280;46188;52.324;8.032;2023-11-21T01:22:15;99942.63;;;7.65;100.00
60345;BME280;46188;52.324;8.032;2023-11-21T01:24:41;99938.44;;;7.80;100.00
60345;BME280;46188;52.324;8.032;2023-11-21T01:27:06;99941.09;;;7.81;100.00
60345;BME280;46188;52.324;8.032;2023-11-21T01:29:32;99944.53;;;7.77;100.00
60345;BME280;46188;52.324;8.032;2023-11-21T01:31:57;99944.47;;;7.74;100.00
60345;BME280;46188;52.324;8.032;2023-11-21T01:34:22;99942.78;;;7.79;100.00
60345;BME280;46188;52.324;8.032;2023-11-21T01:36:48;99948.91;;;7.76;100.00
60345;BME280;46188;52.324;8.032;2023-11-21T01:39:13;99954.00;;;7.67;100.00
60345;BME280;46188;52.324;8.032;2023-11-21T01:41:40;99948.91;;;7.76;100.00
60345;BME280;46188;52.324;8.032;2023-11-21T01:44:06;99948.09;;;7.82;100.00
60345;BME280;46188;52.324;8.032;2023-11-21T01:46:34;99953.00;;;7.57;100.00
60345;BME280;46188;52.324;8.032;2023-11-21T01:48:59;99958.38;;;7.67;100.00
60345;BME280;46188;52.324;8.032;2023-11-21T01:51:25;99956.59;;;7.66;100.00
60345;BME280;46188;52.324;8.032;2023-11-21T01:53:51;99955.88;;;7.76;100.00
60345;BME280;46188;52.324;8.032;2023-11-21T01:56:16;99956.91;;;7.87;100.00
60345;BME280;46188;52.324;8.032;2023-11-21T01:58:42;99958.59;;;7.82;100.00
60345;BME280;46188;52.324;8.032;2023-11-21T02:01:08;99960.41;;;7.86;100.00
60345;BME280;46188;52.324;8.032;2023-11-21T02:03:35;99967.50;;;7.95;100.00
60345;BME280;46188;52.324;8.032;2023-11-21T02:06:00;99965.91;;;8.05;100.00
60345;BME280;46188;52.324;8.032;2023-11-21T02:08:25;99975.38;;;7.95;100.00
60345;BME280;46188;52.324;8.032;2023-11-21T02:10:51;99980.53;;;7.87;100.00
60345;BME280;46188;52.324;8.032;2023-11-21T02:13:17;99983.88;;;7.77;100.00
60345;BME280;46188;52.324;8.032;2023-11-21T02:15:42;99986.53;;;7.79;100.00
60345;BME280;46188;52.324;8.032;2023-11-21T02:18:07;99984.06;;;7.89;100.00
60345;BME280;46188;52.324;8.032;2023-11-21T02:20:35;99981.25;;;7.75;100.00
60345;BME280;46188;52.324;8.032;2023-11-21T02:23:02;99989.13;;;7.77;100.00
60345;BME280;46188;52.324;8.032;2023-11-21T02:25:28;99991.81;;;7.80;100.00
60345;BME280;46188;52.324;8.032;2023-11-21T02:27:57;99995.38;;;7.85;100.00
60345;BME280;46188;52.324;8.032;2023-11-21T02:30:22;99990.28;;;7.98;100.00
60345;BME280;46188;52.324;8.032;2023-11-21T02:32:51;99993.78;;;7.97;100.00
60345;BME280;46188;52.324;8.032;2023-11-21T02:35:19;99998.88;;;7.86;100.00
60345;BME280;46188;52.324;8.032;2023-11-21T02:37:48;99996.09;;;7.73;100.00
60345;BME280;46188;52.324;8.032;2023-11-21T02:40:13;99991.09;;;7.92;100.00
60345;BME280;46188;52.324;8.032;2023-11-21T02:42:42;99988.66;;;8.06;100.00
60345;BME280;46188;52.324;8.032;2023-11-21T02:45:07;99997.44;;;8.08;100.00
60345;BME280;46188;52.324;8.032;2023-11-21T02:47:33;99993.91;;;8.06;100.00
60345;BME280;46188;52.324;8.032;2023-11-21T02:49:58;99997.50;;;8.11;100.00
60345;BME280;46188;52.324;8.032;2023-11-21T02:52:24;99993.13;;;8.11;100.00
60345;BME280;46188;52.324;8.032;2023-11-21T02:54:50;99999.09;;;8.01;100.00
60345;BME280;46188;52.324;8.032;2023-11-21T02:57:15;100000.81;;;8.01;100.00
60345;BME280;46188;52.324;8.032;2023-11-21T02:59:40;99996.41;;;7.97;100.00
60345;BME280;46188;52.324;8.032;2023-11-21T03:02:05;100004.41;;;8.04;100.00
60345;BME280;46188;52.324;8.032;2023-11-21T03:04:33;100005.25;;;8.03;100.00
60345;BME280;46188;52.324;8.032;2023-11-21T03:06:59;100003.47;;;8.02;100.00
60345;BME280;46188;52.324;8.032;2023-11-21T03:09:25;100003.38;;;7.94;100.00
60345;BME280;46188;52.324;8.032;2023-11-21T03:11:52;100005.13;;;7.94;100.00
60345;BME280;46188;52.324;8.032;2023-11-21T03:14:17;100004.22;;;7.92;100.00
60345;BME280;46188;52.324;8.032;2023-11-21T03:16:42;100002.38;;;7.85;100.00
60345;BME280;46188;52.324;8.032;2023-11-21T03:19:10;99999.81;;;7.91;100.00
60345;BME280;46188;52.324;8.032;2023-11-21T03:21:35;100005.78;;;7.79;100.00
60345;BME280;46188;52.324;8.032;2023-11-21T03:24:00;100010.25;;;7.85;100.00
60345;BME280;46188;52.324;8.032;2023-11-21T03:26:26;100008.53;;;7.87;100.00
60345;BME280;46188;52.324;8.032;2023-11-21T03:28:51;100017.25;;;7.86;100.00
60345;BME280;46188;52.324;8.032;2023-11-21T03:31:18;100019.88;;;7.87;100.00
60345;BME280;46188;52.324;8.032;2023-11-21T03:33:44;100022.59;;;7.92;100.00
60345;BME280;46188;52.324;8.032;2023-11-21T03:36:10;100028.75;;;7.95;100.00
60345;BME280;46188;52.324;8.032;2023-11-21T03:38:36;100031.19;;;7.82;100.00
60345;BME280;46188;52.324;8.032;2023-11-21T03:41:01;100026.81;;;7.82;100.00
60345;BME280;46188;52.324;8.032;2023-11-21T03:43:26;100026.84;;;7.84;100.00
60345;BME280;46188;52.324;8.032;2023-11-21T03:45:51;100036.53;;;7.88;100.00
60345;BME280;46188;52.324;8.032;2023-11-21T03:48:17;100034.94;;;7.99;100.00
60345;BME280;46188;52.324;8.032;2023-11-21T03:50:42;100045.31;;;7.90;100.00
60345;BME280;46188;52.324;8.032;2023-11-21T03:53:07;100047.94;;;7.90;100.00
60345;BME280;46188;52.324;8.032;2023-11-21T03:55:32;100051.50;;;7.95;100.00
60345;BME280;46188;52.324;8.032;2023-11-21T03:57:58;100050.66;;;7.96;100.00
60345;BME280;46188;52.324;8.032;2023-11-21T04:00:23;100053.34;;;8.02;100.00
60345;BME280;46188;52.324;8.032;2023-11-21T04:02:49;100061.25;;;8.04;100.00
60345;BME280;46188;52.324;8.032;2023-11-21T04:05:15;100066.41;;;7.96;100.00
60345;BME280;46188;52.324;8.032;2023-11-21T04:07:41;100072.56;;;7.98;100.00
60345;BME280;46188;52.324;8.032;2023-11-21T04:10:07;100070.94;;;8.06;100.00
60345;BME280;46188;52.324;8.032;2023-11-21T04:12:34;100077.84;;;8.00;100.00
60345;BME280;46188;52.324;8.032;2023-11-21T04:14:59;100079.63;;;8.04;100.00
60345;BME280;46188;52.324;8.032;2023-11-21T04:17:24;100075.97;;;7.94;100.00
60345;BME280;46188;52.324;8.032;2023-11-21T04:19:49;100081.16;;;7.88;100.00
60345;BME280;46188;52.324;8.032;2023-11-21T04:22:14;100081.91;;;7.81;100.00
60345;BME280;46188;52.324;8.032;2023-11-21T04:24:40;100089.84;;;7.85;100.00
60345;BME280;46188;52.324;8.032;2023-11-21T04:27:05;100081.06;;;7.83;100.00
60345;BME280;46188;52.324;8.032;2023-11-21T04:29:30;100082.06;;;7.90;100.00
60345;BME280;46188;52.324;8.032;2023-11-21T04:31:55;100082.81;;;7.84;100.00
60345;BME280;46188;52.324;8.032;2023-11-21T04:34:21;100078.41;;;7.80;100.00
60345;BME280;46188;52.324;8.032;2023-11-21T04:36:46;100080.38;;;7.95;100.00
60345;BME280;46188;52.324;8.032;2023-11-21T04:39:11;100088.16;;;7.89;100.00
60345;BME280;46188;52.324;8.032;2023-11-21T04:41:37;100084.50;;;7.79;100.00
60345;BME280;46188;52.324;8.032;2023-11-21T04:44:04;100088.78;;;7.74;100.00
60345;BME280;46188;52.324;8.032;2023-11-21T04:46:29;100087.25;;;7.87;100.00
60345;BME280;46188;52.324;8.032;2023-11-21T04:48:55;100083.03;;;7.97;100.00
60345;BME280;46188;52.324;8.032;2023-11-21T04:51:20;100087.28;;;7.88;100.00
60345;BME280;46188;52.324;8.032;2023-11-21T04:53:45;100091.69;;;7.92;100.00
60345;BME280;46188;52.324;8.032;2023-11-21T04:56:10;100083.84;;;7.94;100.00
60345;BME280;46188;52.324;8.032;2023-11-21T04:58:35;100096.03;;;7.89;100.00
60345;BME280;46188;52.324;8.032;2023-11-21T05:01:01;100090.94;;;7.98;100.00
60345;BME280;46188;52.324;8.032;2023-11-21T05:03:26;100093.66;;;8.06;100.00
60345;BME280;46188;52.324;8.032;2023-11-21T05:05:51;100091.97;;;8.08;100.00
60345;BME280;46188;52.324;8.032;2023-11-21T05:08:16;100098.94;;;8.09;100.00
60345;BME280;46188;52.324;8.032;2023-11-21T05:10:42;100099.63;;;7.95;100.00
60345;BME280;46188;52.324;8.032;2023-11-21T05:13:07;100101.44;;;7.98;100.00
60345;BME280;46188;52.324;8.032;2023-11-21T05:15:35;100104.66;;;7.82;100.00
60345;BME280;46188;52.324;8.032;2023-11-21T05:18:00;100105.25;;;7.64;100.00
60345;BME280;46188;52.324;8.032;2023-11-21T05:20:25;100101.09;;;7.76;100.00
60345;BME280;46188;52.324;8.032;2023-11-21T05:22:51;100109.19;;;7.92;100.00
60345;BME280;46188;52.324;8.032;2023-11-21T05:25:16;100111.97;;;8.01;100.00
60345;BME280;46188;52.324;8.032;2023-11-21T05:27:43;100106.50;;;7.87;100.00
60345;BME280;46188;52.324;8.032;2023-11-21T05:30:09;100104.91;;;7.97;100.00
60345;BME280;46188;52.324;8.032;2023-11-21T05:32:37;100118.88;;;7.94;100.00
60345;BME280;46188;52.324;8.032;2023-11-21T05:35:02;100118.00;;;7.95;100.00
60345;BME280;46188;52.324;8.032;2023-11-21T05:37:27;100127.75;;;8.03;100.00
60345;BME280;46188;52.324;8.032;2023-11-21T05:39:53;100135.56;;;8.00;100.00
60345;BME280;46188;52.324;8.032;2023-11-21T05:42:18;100133.66;;;7.91;100.00
60345;BME280;46188;52.324;8.032;2023-11-21T05:44:43;100131.00;;;7.88;100.00
60345;BME280;46188;52.324;8.032;2023-11-21T05:47:08;100145.94;;;7.92;100.00
60345;BME280;46188;52.324;8.032;2023-11-21T05:49:33;100153.88;;;7.95;100.00
60345;BME280;46188;52.324;8.032;2023-11-21T05:51:59;100153.03;;;7.99;100.00
60345;BME280;46188;52.324;8.032;2023-11-21T05:54:24;100160.91;;;7.99;100.00
60345;BME280;46188;52.324;8.032;2023-11-21T05:56:50;100164.47;;;8.01;100.00
60345;BME280;46188;52.324;8.032;2023-11-21T05:59:15;100167.91;;;7.97;100.00
60345;BME280;46188;52.324;8.032;2023-11-21T06:01:40;100172.31;;;8.00;100.00
60345;BME280;46188;52.324;8.032;2023-11-21T06:04:05;100176.72;;;8.02;100.00
60345;BME280;46188;52.324;8.032;2023-11-21T06:06:30;100185.41;;;7.98;100.00
60345;BME280;46188;52.324;8.032;2023-11-21T06:08:56;100181.88;;;7.98;100.00
60345;BME280;46188;52.324;8.032;2023-11-21T06:11:21;100184.53;;;7.96;100.00
60345;BME280;46188;52.324;8.032;2023-11-21T06:13:46;100191.66;;;8.05;100.00
60345;BME280;46188;52.324;8.032;2023-11-21T06:16:13;100196.13;;;8.12;100.00
60345;BME280;46188;52.324;8.032;2023-11-21T06:18:41;100202.28;;;8.14;100.00
60345;BME280;46188;52.324;8.032;2023-11-21T06:21:08;100202.28;;;8.11;100.00
60345;BME280;46188;52.324;8.032;2023-11-21T06:23:34;100203.88;;;8.03;100.00
60345;BME280;46188;52.324;8.032;2023-11-21T06:25:59;100203.91;;;8.04;100.00
60345;BME280;46188;52.324;8.032;2023-11-21T06:28:24;100218.66;;;7.99;100.00
60345;BME280;46188;52.324;8.032;2023-11-21T06:30:50;100217.78;;;7.97;100.00
60345;BME280;46188;52.324;8.032;2023-11-21T06:33:15;100222.19;;;7.98;100.00
60345;BME280;46188;52.324;8.032;2023-11-21T06:35:41;100219.56;;;8.00;100.00
60345;BME280;46188;52.324;8.032;2023-11-21T06:38:06;100222.28;;;8.06;100.00
60345;BME280;46188;52.324;8.032;2023-11-21T06:40:31;100236.41;;;8.12;100.00
60345;BME280;46188;52.324;8.032;2023-11-21T06:42:58;100228.44;;;8.06;100.00
60345;BME280;46188;52.324;8.032;2023-11-21T06:45:24;100239.03;;;8.11;100.00
60345;BME280;46188;52.324;8.032;2023-11-21T06:47:49;100244.25;;;8.09;100.00
60345;BME280;46188;52.324;8.032;2023-11-21T06:50:14;100250.38;;;8.10;100.00
60345;BME280;46188;52.324;8.032;2023-11-21T06:52:39;100253.09;;;8.15;100.00
60345;BME280;46188;52.324;8.032;2023-11-21T06:55:04;100257.47;;;8.16;100.00
60345;BME280;46188;52.324;8.032;2023-11-21T06:57:30;100260.84;;;8.08;100.00
60345;BME280;46188;52.324;8.032;2023-11-21T06:59:56;100269.72;;;8.15;100.00
60345;BME280;46188;52.324;8.032;2023-11-21T07:02:22;100274.19;;;8.21;100.00
60345;BME280;46188;52.324;8.032;2023-11-21T07:04:47;100270.66;;;8.19;100.00
60345;BME280;46188;52.324;8.032;2023-11-21T07:07:12;100284.69;;;8.21;100.00
60345;BME280;46188;52.324;8.032;2023-11-21T07:09:38;100283.84;;;8.22;100.00
60345;BME280;46188;52.324;8.032;2023-11-21T07:12:03;100284.69;;;8.21;100.00
60345;BME280;46188;52.324;8.032;2023-11-21T07:14:31;100290.81;;;8.20;100.00
60345;BME280;46188;52.324;8.032;2023-11-21T07:16:57;100281.97;;;8.15;100.00
60345;BME280;46188;52.324;8.032;2023-11-21T07:19:22;100290.75;;;8.17;100.00
60345;BME280;46188;52.324;8.032;2023-11-21T07:21:47;100293.44;;;8.20;100.00
60345;BME280;46188;52.324;8.032;2023-11-21T07:24:15;100301.25;;;8.17;100.00
60345;BME280;46188;52.324;8.032;2023-11-21T07:26:41;100292.56;;;8.21;100.00
60345;BME280;46188;52.324;8.032;2023-11-21T07:29:06;100296.94;;;8.20;100.00
60345;BME280;46188;52.324;8.032;2023-11-21T07:31:31;100298.59;;;8.15;100.00
60345;BME280;46188;52.324;8.032;2023-11-21T07:33:59;100299.53;;;8.19;100.00
60345;BME280;46188;52.324;8.032;2023-11-21T07:36:24;100303.97;;;8.21;100.00
60345;BME280;46188;52.324;8.032;2023-11-21T07:38:49;100303.09;;;8.22;100.00
60345;BME280;46188;52.324;8.032;2023-11-21T07:41:15;100310.16;;;8.25;100.00
60345;BME280;46188;52.324;8.032;2023-11-21T07:43:40;100308.38;;;8.24;100.00
60345;BME280;46188;52.324;8.032;2023-11-21T07:46:06;100308.38;;;8.24;100.00
60345;BME280;46188;52.324;8.032;2023-11-21T07:48:31;100317.09;;;8.21;100.00
60345;BME280;46188;52.324;8.032;2023-11-21T07:50:57;100316.09;;;8.15;100.00
60345;BME280;46188;52.324;8.032;2023-11-21T07:53:23;100321.47;;;8.22;100.00
60345;BME280;46188;52.324;8.032;2023-11-21T07:55:48;100326.72;;;8.22;100.00
60345;BME280;46188;52.324;8.032;2023-11-21T07:58:13;100338.09;;;8.21;100.00
60345;BME280;46188;52.324;8.032;2023-11-21T08:00:38;100338.13;;;8.23;100.00
60345;BME280;46188;52.324;8.032;2023-11-21T08:03:04;100335.47;;;8.21;100.00
60345;BME280;46188;52.324;8.032;2023-11-21T08:05:30;100342.34;;;8.15;100.00
60345;BME280;46188;52.324;8.032;2023-11-21T08:07:55;100347.69;;;8.19;100.00
60345;BME280;46188;52.324;8.032;2023-11-21T08:10:21;100347.63;;;8.15;100.00
60345;BME280;46188;52.324;8.032;2023-11-21T08:12:46;100353.78;;;8.17;100.00
60345;BME280;46188;52.324;8.032;2023-11-21T08:15:13;100359.94;;;8.19;100.00
60345;BME280;46188;52.324;8.032;2023-11-21T08:17:38;100366.97;;;8.20;100.00
60345;BME280;46188;52.324;8.032;2023-11-21T08:20:03;100367.94;;;8.25;100.00
60345;BME280;46188;52.324;8.032;2023-11-21T08:22:29;100374.06;;;8.25;100.00
60345;BME280;46188;52.324;8.032;2023-11-21T08:24:54;100378.44;;;8.25;100.00
60345;BME280;46188;52.324;8.032;2023-11-21T08:27:20;100386.34;;;8.26;100.00
60345;BME280;46188;52.324;8.032;2023-11-21T08:29:46;100391.56;;;8.25;100.00
60345;BME280;46188;52.324;8.032;2023-11-21T08:32:11;100401.22;;;8.26;100.00
60345;BME280;46188;52.324;8.032;2023-11-21T08:34:36;100398.63;;;8.29;100.00
60345;BME280;46188;52.324;8.032;2023-11-21T08:37:01;100403.16;;;8.36;100.00
60345;BME280;46188;52.324;8.032;2023-11-21T08:39:26;100409.28;;;8.37;100.00
60345;BME280;46188;52.324;8.032;2023-11-21T08:41:52;100412.81;;;8.39;100.00
60345;BME280;46188;52.324;8.032;2023-11-21T08:44:17;100416.28;;;8.36;100.00
60345;BME280;46188;52.324;8.032;2023-11-21T08:46:43;100416.34;;;8.39;100.00
60345;BME280;46188;52.324;8.032;2023-11-21T08:49:10;100418.06;;;8.39;100.00
60345;BME280;46188;52.324;8.032;2023-11-21T08:51:35;100421.53;;;8.35;100.00
60345;BME280;46188;52.324;8.032;2023-11-21T08:54:00;100418.06;;;8.39;100.00
60345;BME280;46188;52.324;8.032;2023-11-21T08:56:29;100419.84;;;8.40;100.00
60345;BME280;46188;52.324;8.032;2023-11-21T08:58:54;100421.66;;;8.42;100.00
60345;BME280;46188;52.324;8.032;2023-11-21T09:01:19;100439.31;;;8.48;100.00
60345;BME280;46188;52.324;8.032;2023-11-21T09:03:46;100430.34;;;8.38;100.00
60345;BME280;46188;52.324;8.032;2023-11-21T09:06:11;100439.06;;;8.37;100.00
60345;BME280;46188;52.324;8.032;2023-11-21T09:08:37;100444.25;;;8.32;100.00
60345;BME280;46188;52.324;8.032;2023-11-21T09:11:02;100448.72;;;8.38;100.00
60345;BME280;46188;52.324;8.032;2023-11-21T09:13:28;100459.16;;;8.35;100.00
60345;BME280;46188;52.324;8.032;2023-11-21T09:15:54;100466.16;;;8.35;100.00
60345;BME280;46188;52.324;8.032;2023-11-21T09:18:20;100466.09;;;8.31;100.00
60345;BME280;46188;52.324;8.032;2023-11-21T09:20:45;100471.97;;;8.18;100.00
60345;BME280;46188;52.324;8.032;2023-11-21T09:23:10;100476.47;;;8.25;100.00
60345;BME280;46188;52.324;8.032;2023-11-21T09:25:35;100471.19;;;8.24;100.00
60345;BME280;46188;52.324;8.032;2023-11-21T09:28:02;100474.78;;;8.29;100.00
60345;BME280;46188;52.324;8.032;2023-11-21T09:30:27;100472.13;;;8.26;100.00
60345;BME280;46188;52.324;8.032;2023-11-21T09:32:52;100474.00;;;8.33;100.00
60345;BME280;46188;52.324;8.032;2023-11-21T09:35:17;100475.81;;;8.34;100.00
60345;BME280;46188;52.324;8.032;2023-11-21T09:37:46;100483.03;;;8.44;100.00
60345;BME280;46188;52.324;8.032;2023-11-21T09:40:11;100483.72;;;8.37;100.00
60345;BME280;46188;52.324;8.032;2023-11-21T09:42:43;100488.13;;;8.38;100.00
60345;BME280;46188;52.324;8.032;2023-11-21T09:45:26;100486.34;;;8.37;100.00
60345;BME280;46188;52.324;8.032;2023-11-21T09:47:53;100487.25;;;8.38;100.00
60345;BME280;46188;52.324;8.032;2023-11-21T09:50:20;100495.16;;;8.39;100.00
60345;BME280;46188;52.324;8.032;2023-11-21T09:55:27;100500.44;;;8.41;100.00
60345;BME280;46188;52.324;8.032;2023-11-21T09:57:54;100504.81;;;8.42;100.00
60345;BME280;46188;52.324;8.032;2023-11-21T10:00:20;100509.06;;;8.35;100.00
60345;BME280;46188;52.324;8.032;2023-11-21T10:02:48;100512.53;;;8.32;100.00
60345;BME280;46188;52.324;8.032;2023-11-21T10:05:15;100523.84;;;8.30;100.00
60345;BME280;46188;52.324;8.032;2023-11-21T10:07:42;100525.53;;;8.26;100.00
60345;BME280;46188;52.324;8.032;2023-11-21T10:10:09;100523.00;;;8.31;100.00
60345;BME280;46188;52.324;8.032;2023-11-21T10:12:35;100539.41;;;8.21;100.00
60345;BME280;46188;52.324;8.032;2023-11-21T10:15:00;100542.31;;;8.33;100.00
60345;BME280;46188;52.324;8.032;2023-11-21T10:17:27;100538.03;;;8.38;100.00
60345;BME280;46188;52.324;8.032;2023-11-21T10:19:55;100545.91;;;8.38;100.00
60345;BME280;46188;52.324;8.032;2023-11-21T10:22:22;100549.63;;;8.46;100.00
60345;BME280;46188;52.324;8.032;2023-11-21T10:24:48;100547.72;;;8.42;100.00
60345;BME280;46188;52.324;8.032;2023-11-21T10:27:13;100551.13;;;8.37;100.00
60345;BME280;46188;52.324;8.032;2023-11-21T10:29:39;100557.06;;;8.26;100.00
60345;BME280;46188;52.324;8.032;2023-11-21T10:32:04;100553.53;;;8.26;100.00
60345;BME280;46188;52.324;8.032;2023-11-21T10:34:30;100555.88;;;8.13;100.00
60345;BME280;46188;52.324;8.032;2023-11-21T10:36:55;100555.16;;;8.21;100.00
60345;BME280;46188;52.324;8.032;2023-11-21T10:39:23;100561.25;;;8.18;100.00
60345;BME280;46188;52.324;8.032;2023-11-21T10:41:49;100563.84;;;8.17;100.00
60345;BME280;46188;52.324;8.032;2023-11-21T10:44:15;100576.91;;;8.13;100.00
60345;BME280;46188;52.324;8.032;2023-11-21T10:46:45;100581.16;;;8.08;100.00
60345;BME280;46188;52.324;8.032;2023-11-21T10:49:15;100591.78;;;8.13;100.00
60345;BME280;46188;52.324;8.032;2023-11-21T10:51:42;100594.28;;;8.08;100.00
60345;BME280;46188;52.324;8.032;2023-11-21T10:54:08;100595.03;;;8.03;100.00
60345;BME280;46188;52.324;8.032;2023-11-21T10:56:33;100589.78;;;8.03;100.00
60345;BME280;46188;52.324;8.032;2023-11-21T10:59:00;100583.34;;;7.90;100.00
60345;BME280;46188;52.324;8.032;2023-11-21T11:01:26;100586.72;;;7.84;100.00
60345;BME280;46188;52.324;8.032;2023-11-21T11:03:54;100594.53;;;7.83;100.00
60345;BME280;46188;52.324;8.032;2023-11-21T11:06:20;100594.53;;;7.81;100.00
60345;BME280;46188;52.324;8.032;2023-11-21T11:08:46;100599.06;;;7.88;100.00
60345;BME280;46188;52.324;8.032;2023-11-21T11:11:12;100597.31;;;7.89;100.00
60345;BME280;46188;52.324;8.032;2023-11-21T11:13:38;100601.88;;;7.96;100.00
60345;BME280;46188;52.324;8.032;2023-11-21T11:16:07;100597.66;;;8.03;100.00
60345;BME280;46188;52.324;8.032;2023-11-21T11:18:35;100601.16;;;8.03;100.00
60345;BME280;46188;52.324;8.032;2023-11-21T11:26:20;100605.53;;;8.03;100.00
60345;BME280;46188;52.324;8.032;2023-11-21T11:28:52;100602.91;;;8.03;100.00
60345;BME280;46188;52.324;8.032;2023-11-21T11:33:52;100610.53;;;7.92;100.00
60345;BME280;46188;52.324;8.032;2023-11-21T11:36:26;100622.88;;;7.96;100.00
60345;BME280;46188;52.324;8.032;2023-11-21T11:38:54;100618.66;;;8.03;100.00
60345;BME280;46188;52.324;8.032;2023-11-21T11:41:24;100630.06;;;8.03;100.00
60345;BME280;46188;52.324;8.032;2023-11-21T11:43:50;100632.88;;;8.11;100.00
60345;BME280;46188;52.324;8.032;2023-11-21T11:46:15;100633.66;;;8.08;100.00
60345;BME280;46188;52.324;8.032;2023-11-21T11:48:40;100626.59;;;8.06;100.00
60345;BME280;46188;52.324;8.032;2023-11-21T11:53:40;100620.69;;;7.78;100.00
60345;BME280;46188;52.324;8.032;2023-11-21T11:56:19;100623.44;;;7.84;100.00
60345;BME280;46188;52.324;8.032;2023-11-21T11:58:44;100609.53;;;7.87;100.00
60345;BME280;46188;52.324;8.032;2023-11-21T12:01:11;100622.56;;;7.84;100.00
60345;BME280;46188;52.324;8.032;2023-11-21T12:03:36;100628.63;;;7.80;100.00
60345;BME280;46188;52.324;8.032;2023-11-21T12:06:02;100645.44;;;7.88;100.00
60345;BME280;46188;52.324;8.032;2023-11-21T12:08:28;100644.59;;;7.90;100.00
60345;BME280;46188;52.324;8.032;2023-11-21T12:10:56;100653.59;;;8.00;100.00
60345;BME280;46188;52.324;8.032;2023-11-21T12:13:22;100666.44;;;7.88;100.00
60345;BME280;46188;52.324;8.032;2023-11-21T12:15:48;100663.72;;;7.85;100.00
60345;BME280;46188;52.324;8.032;2023-11-21T12:18:13;100663.03;;;7.92;100.00
60345;BME280;46188;52.324;8.032;2023-11-21T12:20:39;100665.19;;;8.08;100.00
60345;BME280;46188;52.324;8.032;2023-11-21T12:23:06;100667.69;;;8.04;100.00
60345;BME280;46188;52.324;8.032;2023-11-21T12:25:31;100675.59;;;8.05;100.00
60345;BME280;46188;52.324;8.032;2023-11-21T12:28:01;100685.34;;;8.09;100.00
60345;BME280;46188;52.324;8.032;2023-11-21T12:30:28;100689.56;;;8.03;100.00
60345;BME280;46188;52.324;8.032;2023-11-21T12:32:56;100689.59;;;8.04;100.00
60345;BME280;46188;52.324;8.032;2023-11-21T12:35:22;100695.63;;;8.02;100.00
60345;BME280;46188;52.324;8.032;2023-11-21T12:37:47;100702.72;;;8.04;100.00
60345;BME280;46188;52.324;8.032;2023-11-21T12:40:13;100701.84;;;8.05;100.00
60345;BME280;46188;52.324;8.032;2023-11-21T12:42:42;100706.06;;;7.99;100.00
60345;BME280;46188;52.324;8.032;2023-11-21T12:47:40;100714.16;;;8.06;100.00
60345;BME280;46188;52.324;8.032;2023-11-21T12:50:05;100709.84;;;8.10;100.00
60345;BME280;46188;52.324;8.032;2023-11-21T12:52:31;100716.84;;;8.09;100.00
60345;BME280;46188;52.324;8.032;2023-11-21T12:54:57;100716.72;;;8.05;100.00
60345;BME280;46188;52.324;8.032;2023-11-21T12:57:25;100726.19;;;7.98;100.00
60345;BME280;46188;52.324;8.032;2023-11-21T12:59:52;100728.16;;;8.07;100.00
60345;BME280;46188;52.324;8.032;2023-11-21T13:02:19;100736.84;;;8.04;100.00